Markham, Washington
Current Conditions -  °F | °C
As of 11:53 PM on Friday 28 Nov 2014 (Local Time) from KHQM Reporting Station
Light Rain Light Rain  
Wind Chill: 32°   Ceiling: 4400
Heat Index: 40°   Visibility: 8mi
Dew Point: 34°   Wind: 14mph
Humidity: 79%   Direction: 260°W
Pressure: 29.58"   Gusts: 24mph
Location:  47.1445°N, 123.771°W
Report Text: KHQM 290753Z AUTO 26012G21KT 8SM -RA SCT034 BKN044 OVC050 04/01 A2958 RMK AO2 RAB37 SLP021 P0001 T00440011 401330044
Loading
Personal Weather Stations






























Interactive Weather Map New forecast layout! Learn more

10-Day Weather Forecast

Advertisements
Track Severe Weather on mobile